sensor_id;sensor_type;location;lat;lon;timestamp;pressure;altitude;pressure_sealevel;temperature;humidity
37648;BME280;23490;53.656;10.076;2022-10-16T00:01:13;98651.91;;;-145.95;100.00
37648;BME280;23490;53.656;10.076;2022-10-16T00:03:40;98608.53;;;-145.95;100.00
37648;BME280;23490;53.656;10.076;2022-10-16T00:06:07;98616.78;;;-145.95;100.00
37648;BME280;23490;53.656;10.076;2022-10-16T00:08:33;98629.19;;;-145.95;100.00
37648;BME280;23490;53.656;10.076;2022-10-16T00:11:04;98608.53;;;-145.95;100.00
37648;BME280;23490;53.656;10.076;2022-10-16T00:13:30;98614.72;;;-145.95;100.00
37648;BME280;23490;53.656;10.076;2022-10-16T00:15:57;98602.34;;;-145.95;99.59
37648;BME280;23490;53.656;10.076;2022-10-16T00:18:23;98629.19;;;-145.95;100.00
37648;BME280;23490;53.656;10.076;2022-10-16T00:20:49;98637.44;;;-145.95;100.00
37648;BME280;23490;53.656;10.076;2022-10-16T00:23:14;98592.03;;;-145.95;100.00
37648;BME280;23490;53.656;10.076;2022-10-16T00:25:39;98610.59;;;-145.95;100.00
37648;BME280;23490;53.656;10.076;2022-10-16T00:28:05;98629.19;;;-145.95;100.00
37648;BME280;23490;53.656;10.076;2022-10-16T00:30:30;98625.06;;;-145.95;99.78
37648;BME280;23490;53.656;10.076;2022-10-16T00:32:56;98598.22;;;-145.95;99.39
37648;BME280;23490;53.656;10.076;2022-10-16T00:35:21;98596.16;;;-145.95;98.06
37648;BME280;23490;53.656;10.076;2022-10-16T00:37:47;98625.06;;;-145.95;96.86
37648;BME280;23490;53.656;10.076;2022-10-16T00:40:12;98612.66;;;-145.95;97.03
37648;BME280;23490;53.656;10.076;2022-10-16T00:42:38;98567.25;;;-145.95;96.42
37648;BME280;23490;53.656;10.076;2022-10-16T00:45:04;98592.03;;;-145.95;97.45
37648;BME280;23490;53.656;10.076;2022-10-16T00:47:39;98608.53;;;-145.95;95.03
37648;BME280;23490;53.656;10.076;2022-10-16T00:50:13;98637.44;;;-145.95;93.98
37648;BME280;23490;53.656;10.076;2022-10-16T00:52:46;98623.00;;;-145.95;92.62
37648;BME280;23490;53.656;10.076;2022-10-16T00:55:13;98608.53;;;-145.95;93.23
37648;BME280;23490;53.656;10.076;2022-10-16T00:57:39;98602.34;;;-145.95;92.65
37648;BME280;23490;53.656;10.076;2022-10-16T01:00:07;98608.53;;;-145.95;91.35
37648;BME280;23490;53.656;10.076;2022-10-16T01:02:33;98571.38;;;-145.95;90.69
37648;BME280;23490;53.656;10.076;2022-10-16T01:04:58;98587.88;;;-145.95;90.01
37648;BME280;23490;53.656;10.076;2022-10-16T01:10:17;98596.16;;;-145.95;92.05
37648;BME280;23490;53.656;10.076;2022-10-16T01:12:57;98637.44;;;-145.95;91.42
37648;BME280;23490;53.656;10.076;2022-10-16T01:15:31;98627.13;;;-145.95;90.16
37648;BME280;23490;53.656;10.076;2022-10-16T01:18:28;98569.31;;;-145.95;88.86
37648;BME280;23490;53.656;10.076;2022-10-16T01:21:04;98598.22;;;-145.95;87.75
37648;BME280;23490;53.656;10.076;2022-10-16T01:23:38;98643.63;;;-145.95;90.20
37648;BME280;23490;53.656;10.076;2022-10-16T01:26:34;98641.56;;;-145.95;89.39
37648;BME280;23490;53.656;10.076;2022-10-16T01:29:09;98625.06;;;-145.95;88.65
37648;BME280;23490;53.656;10.076;2022-10-16T01:31:40;98585.81;;;-145.95;89.09
37648;BME280;23490;53.656;10.076;2022-10-16T01:34:15;98596.16;;;-145.95;87.72
37648;BME280;23490;53.656;10.076;2022-10-16T01:36:49;98596.16;;;-145.95;87.75
37648;BME280;23490;53.656;10.076;2022-10-16T01:39:20;98633.31;;;-145.95;88.83
37648;BME280;23490;53.656;10.076;2022-10-16T01:41:59;98625.06;;;-145.95;87.92
37648;BME280;23490;53.656;10.076;2022-10-16T01:44:29;98625.06;;;-145.95;87.43
37648;BME280;23490;53.656;10.076;2022-10-16T01:46:56;98695.25;;;-145.95;88.31
37648;BME280;23490;53.656;10.076;2022-10-16T01:49:25;98629.19;;;-145.95;88.69
37648;BME280;23490;53.656;10.076;2022-10-16T01:51:55;98670.47;;;-145.95;87.63
37648;BME280;23490;53.656;10.076;2022-10-16T01:54:23;98645.69;;;-145.95;87.60
37648;BME280;23490;53.656;10.076;2022-10-16T01:56:51;98645.69;;;-145.95;88.92
37648;BME280;23490;53.656;10.076;2022-10-16T01:59:20;98687.00;;;-145.95;88.21
37648;BME280;23490;53.656;10.076;2022-10-16T02:01:52;98649.84;;;-145.95;89.58
37648;BME280;23490;53.656;10.076;2022-10-16T02:04:36;98674.59;;;-145.95;88.80
37648;BME280;23490;53.656;10.076;2022-10-16T02:07:03;98649.84;;;-145.95;88.73
37648;BME280;23490;53.656;10.076;2022-10-16T02:09:30;98616.78;;;-145.95;87.69
37648;BME280;23490;53.656;10.076;2022-10-16T02:11:59;98614.72;;;-145.95;88.65
37648;BME280;23490;53.656;10.076;2022-10-16T02:14:28;98623.00;;;-145.95;88.66
37648;BME280;23490;53.656;10.076;2022-10-16T02:16:54;98633.31;;;-145.95;88.14
37648;BME280;23490;53.656;10.076;2022-10-16T02:19:20;98672.53;;;-145.95;88.80
37648;BME280;23490;53.656;10.076;2022-10-16T02:21:51;98701.44;;;-145.95;88.87
37648;BME280;23490;53.656;10.076;2022-10-16T02:24:33;98625.06;;;-145.95;88.82
37648;BME280;23490;53.656;10.076;2022-10-16T02:27:10;98680.81;;;-145.95;88.66
37648;BME280;23490;53.656;10.076;2022-10-16T02:29:41;98678.75;;;-145.95;89.09
37648;BME280;23490;53.656;10.076;2022-10-16T02:32:14;98724.16;;;-145.95;89.34
37648;BME280;23490;53.656;10.076;2022-10-16T02:34:41;98666.34;;;-145.95;89.05
37648;BME280;23490;53.656;10.076;2022-10-16T02:37:07;98672.53;;;-145.95;88.27
37648;BME280;23490;53.656;10.076;2022-10-16T02:39:33;98660.16;;;-145.95;88.53
37648;BME280;23490;53.656;10.076;2022-10-16T02:41:59;98695.25;;;-145.95;89.39
37648;BME280;23490;53.656;10.076;2022-10-16T02:44:24;98649.84;;;-145.95;88.70
37648;BME280;23490;53.656;10.076;2022-10-16T02:46:50;98707.66;;;-145.95;88.46
37648;BME280;23490;53.656;10.076;2022-10-16T02:49:15;98691.13;;;-145.95;88.46
37648;BME280;23490;53.656;10.076;2022-10-16T02:51:41;98668.41;;;-145.95;88.76
37648;BME280;23490;53.656;10.076;2022-10-16T02:54:06;98678.75;;;-145.95;88.41
37648;BME280;23490;53.656;10.076;2022-10-16T02:56:31;98732.44;;;-145.95;90.07
37648;BME280;23490;53.656;10.076;2022-10-16T02:58:57;98687.00;;;-145.95;89.79
37648;BME280;23490;53.656;10.076;2022-10-16T03:01:23;98711.78;;;-145.95;88.76
37648;BME280;23490;53.656;10.076;2022-10-16T03:03:49;98726.22;;;-145.95;89.38
37648;BME280;23490;53.656;10.076;2022-10-16T03:06:14;98744.81;;;-145.95;90.61
37648;BME280;23490;53.656;10.076;2022-10-16T03:08:39;98744.81;;;-145.95;90.58
37648;BME280;23490;53.656;10.076;2022-10-16T03:11:05;98711.78;;;-145.95;90.17
37648;BME280;23490;53.656;10.076;2022-10-16T03:13:30;98703.53;;;-145.95;90.41
37648;BME280;23490;53.656;10.076;2022-10-16T03:15:55;98728.28;;;-145.95;90.59
37648;BME280;23490;53.656;10.076;2022-10-16T03:18:21;98773.72;;;-145.95;90.58
37648;BME280;23490;53.656;10.076;2022-10-16T03:20:46;98742.75;;;-145.95;90.79
37648;BME280;23490;53.656;10.076;2022-10-16T03:23:11;98761.34;;;-145.95;90.42
37648;BME280;23490;53.656;10.076;2022-10-16T03:25:36;98746.88;;;-145.95;90.97
37648;BME280;23490;53.656;10.076;2022-10-16T03:28:02;98740.69;;;-145.95;91.50
37648;BME280;23490;53.656;10.076;2022-10-16T03:30:28;98773.72;;;-145.95;92.32
37648;BME280;23490;53.656;10.076;2022-10-16T03:32:53;98755.13;;;-145.95;91.97
37648;BME280;23490;53.656;10.076;2022-10-16T03:35:23;98771.66;;;-145.95;92.09
37648;BME280;23490;53.656;10.076;2022-10-16T03:37:48;98744.81;;;-145.95;91.52
37648;BME280;23490;53.656;10.076;2022-10-16T03:40:15;98761.34;;;-145.95;91.31
37648;BME280;23490;53.656;10.076;2022-10-16T03:42:42;98761.34;;;-145.95;91.76
37648;BME280;23490;53.656;10.076;2022-10-16T03:45:08;98742.75;;;-145.95;91.47
37648;BME280;23490;53.656;10.076;2022-10-16T03:47:33;98748.94;;;-145.95;92.40
37648;BME280;23490;53.656;10.076;2022-10-16T03:49:59;98781.97;;;-145.95;92.15
37648;BME280;23490;53.656;10.076;2022-10-16T03:52:24;98748.94;;;-145.95;91.04
37648;BME280;23490;53.656;10.076;2022-10-16T03:54:50;98773.72;;;-145.95;91.72
37648;BME280;23490;53.656;10.076;2022-10-16T03:57:16;98761.34;;;-145.95;91.85
37648;BME280;23490;53.656;10.076;2022-10-16T03:59:41;98705.59;;;-145.95;92.10
37648;BME280;23490;53.656;10.076;2022-10-16T04:02:06;98773.72;;;-145.95;91.73
37648;BME280;23490;53.656;10.076;2022-10-16T04:04:32;98748.94;;;-145.95;92.15
37648;BME280;23490;53.656;10.076;2022-10-16T04:06:57;98786.09;;;-145.95;93.11
37648;BME280;23490;53.656;10.076;2022-10-16T04:09:22;98767.53;;;-145.95;93.22
37648;BME280;23490;53.656;10.076;2022-10-16T04:11:48;98786.09;;;-145.95;93.67
37648;BME280;23490;53.656;10.076;2022-10-16T04:14:13;98769.59;;;-145.95;93.28
37648;BME280;23490;53.656;10.076;2022-10-16T04:16:38;98773.72;;;-145.95;92.25
37648;BME280;23490;53.656;10.076;2022-10-16T04:19:04;98765.47;;;-145.95;93.53
37648;BME280;23490;53.656;10.076;2022-10-16T04:21:29;98788.19;;;-145.95;93.48
37648;BME280;23490;53.656;10.076;2022-10-16T04:23:54;98769.59;;;-145.95;92.52
37648;BME280;23490;53.656;10.076;2022-10-16T04:26:19;98732.44;;;-145.95;91.87
37648;BME280;23490;53.656;10.076;2022-10-16T04:28:45;98771.66;;;-145.95;92.20
37648;BME280;23490;53.656;10.076;2022-10-16T04:31:10;98753.06;;;-145.95;91.51
37648;BME280;23490;53.656;10.076;2022-10-16T04:33:35;98786.09;;;-145.95;92.54
37648;BME280;23490;53.656;10.076;2022-10-16T04:36:02;98786.09;;;-145.95;92.57
37648;BME280;23490;53.656;10.076;2022-10-16T04:38:27;98769.59;;;-145.95;91.11
37648;BME280;23490;53.656;10.076;2022-10-16T04:40:53;98748.94;;;-145.95;91.17
37648;BME280;23490;53.656;10.076;2022-10-16T04:43:18;98777.84;;;-145.95;90.79
37648;BME280;23490;53.656;10.076;2022-10-16T04:45:44;98757.19;;;-145.95;91.39
37648;BME280;23490;53.656;10.076;2022-10-16T04:48:09;98740.69;;;-145.95;90.66
37648;BME280;23490;53.656;10.076;2022-10-16T04:50:34;98757.19;;;-145.95;91.33
37648;BME280;23490;53.656;10.076;2022-10-16T04:53:00;98773.72;;;-145.95;91.27
37648;BME280;23490;53.656;10.076;2022-10-16T04:55:25;98773.72;;;-145.95;91.67
37648;BME280;23490;53.656;10.076;2022-10-16T04:57:50;98763.41;;;-145.95;92.13
37648;BME280;23490;53.656;10.076;2022-10-16T05:00:16;98823.28;;;-145.95;92.64
37648;BME280;23490;53.656;10.076;2022-10-16T05:02:41;98777.84;;;-145.95;91.54
37648;BME280;23490;53.656;10.076;2022-10-16T05:05:07;98781.97;;;-145.95;91.50
37648;BME280;23490;53.656;10.076;2022-10-16T05:07:32;98769.59;;;-145.95;92.60
37648;BME280;23490;53.656;10.076;2022-10-16T05:09:58;98798.50;;;-145.95;93.58
37648;BME280;23490;53.656;10.076;2022-10-16T05:12:23;98819.16;;;-145.95;93.71
37648;BME280;23490;53.656;10.076;2022-10-16T05:14:48;98757.19;;;-145.95;92.34
37648;BME280;23490;53.656;10.076;2022-10-16T05:17:13;98786.09;;;-145.95;93.04
37648;BME280;23490;53.656;10.076;2022-10-16T05:19:39;98794.38;;;-145.95;92.90
37648;BME280;23490;53.656;10.076;2022-10-16T05:22:04;98806.75;;;-145.95;92.63
37648;BME280;23490;53.656;10.076;2022-10-16T05:24:30;98748.94;;;-145.95;92.19
37648;BME280;23490;53.656;10.076;2022-10-16T05:26:56;98777.84;;;-145.95;92.02
37648;BME280;23490;53.656;10.076;2022-10-16T05:29:21;98775.78;;;-145.95;92.02
37648;BME280;23490;53.656;10.076;2022-10-16T05:31:50;98777.84;;;-145.95;91.75
37648;BME280;23490;53.656;10.076;2022-10-16T05:34:15;98786.09;;;-145.95;92.06
37648;BME280;23490;53.656;10.076;2022-10-16T05:36:41;98802.63;;;-145.95;92.17
37648;BME280;23490;53.656;10.076;2022-10-16T05:39:06;98753.06;;;-145.95;92.60
37648;BME280;23490;53.656;10.076;2022-10-16T05:41:31;98755.13;;;-145.95;92.54
37648;BME280;23490;53.656;10.076;2022-10-16T05:43:57;98736.56;;;-145.95;92.59
37648;BME280;23490;53.656;10.076;2022-10-16T05:46:22;98786.09;;;-145.95;92.50
37648;BME280;23490;53.656;10.076;2022-10-16T05:48:47;98798.50;;;-145.95;93.06
37648;BME280;23490;53.656;10.076;2022-10-16T05:51:14;98769.59;;;-145.95;93.10
37648;BME280;23490;53.656;10.076;2022-10-16T05:53:40;98806.75;;;-145.95;93.80
37648;BME280;23490;53.656;10.076;2022-10-16T05:56:08;98802.63;;;-145.95;94.36
37648;BME280;23490;53.656;10.076;2022-10-16T05:58:36;98815.03;;;-145.95;94.51
37648;BME280;23490;53.656;10.076;2022-10-16T06:01:05;98746.88;;;-145.95;93.45
37648;BME280;23490;53.656;10.076;2022-10-16T06:03:32;98786.09;;;-145.95;93.77
37648;BME280;23490;53.656;10.076;2022-10-16T06:05:57;98786.09;;;-145.95;93.38
37648;BME280;23490;53.656;10.076;2022-10-16T06:08:23;98757.19;;;-145.95;94.14
37648;BME280;23490;53.656;10.076;2022-10-16T06:10:57;98765.47;;;-145.95;93.97
37648;BME280;23490;53.656;10.076;2022-10-16T06:13:24;98786.09;;;-145.95;93.60
37648;BME280;23490;53.656;10.076;2022-10-16T06:15:50;98757.19;;;-145.95;93.72
37648;BME280;23490;53.656;10.076;2022-10-16T06:18:15;98784.03;;;-145.95;93.93
37648;BME280;23490;53.656;10.076;2022-10-16T06:20:40;98765.47;;;-145.95;93.25
37648;BME280;23490;53.656;10.076;2022-10-16T06:23:06;98769.59;;;-145.95;93.37
37648;BME280;23490;53.656;10.076;2022-10-16T06:25:31;98761.34;;;-145.95;94.40
37648;BME280;23490;53.656;10.076;2022-10-16T06:27:57;98765.47;;;-145.95;94.03
37648;BME280;23490;53.656;10.076;2022-10-16T06:30:22;98773.72;;;-145.95;93.99
37648;BME280;23490;53.656;10.076;2022-10-16T06:32:47;98777.84;;;-145.95;94.24
37648;BME280;23490;53.656;10.076;2022-10-16T06:35:13;98775.78;;;-145.95;94.49
37648;BME280;23490;53.656;10.076;2022-10-16T06:37:38;98786.09;;;-145.95;94.99
37648;BME280;23490;53.656;10.076;2022-10-16T06:40:04;98798.50;;;-145.95;95.43
37648;BME280;23490;53.656;10.076;2022-10-16T06:42:30;98810.88;;;-145.95;95.57
37648;BME280;23490;53.656;10.076;2022-10-16T06:44:55;98815.03;;;-145.95;96.09
37648;BME280;23490;53.656;10.076;2022-10-16T06:47:21;98786.09;;;-145.95;96.20
37648;BME280;23490;53.656;10.076;2022-10-16T06:49:46;98798.50;;;-145.95;95.91
37648;BME280;23490;53.656;10.076;2022-10-16T06:52:11;98852.19;;;-145.95;95.81
37648;BME280;23490;53.656;10.076;2022-10-16T06:54:37;98802.63;;;-145.95;96.35
37648;BME280;23490;53.656;10.076;2022-10-16T06:57:02;98790.25;;;-145.95;96.48
37648;BME280;23490;53.656;10.076;2022-10-16T06:59:27;98779.91;;;-145.95;96.11
37648;BME280;23490;53.656;10.076;2022-10-16T07:01:53;98781.97;;;-145.95;95.94
37648;BME280;23490;53.656;10.076;2022-10-16T07:04:18;98753.06;;;-145.95;95.70
37648;BME280;23490;53.656;10.076;2022-10-16T07:06:44;98740.69;;;-145.95;95.81
37648;BME280;23490;53.656;10.076;2022-10-16T07:09:10;98736.56;;;-145.95;95.01
37648;BME280;23490;53.656;10.076;2022-10-16T07:11:38;98695.25;;;-145.95;94.91
37648;BME280;23490;53.656;10.076;2022-10-16T07:14:04;98672.53;;;-145.95;92.64
37648;BME280;23490;53.656;10.076;2022-10-16T07:16:31;98645.69;;;-145.95;92.66
37648;BME280;23490;53.656;10.076;2022-10-16T07:18:58;98649.84;;;-145.95;92.35
37648;BME280;23490;53.656;10.076;2022-10-16T07:21:26;98620.94;;;-145.95;92.12
37648;BME280;23490;53.656;10.076;2022-10-16T07:23:55;98592.03;;;-145.95;91.42
37648;BME280;23490;53.656;10.076;2022-10-16T07:26:23;98620.94;;;-145.95;91.29
37648;BME280;23490;53.656;10.076;2022-10-16T07:28:48;98579.63;;;-145.95;91.19
37648;BME280;23490;53.656;10.076;2022-10-16T07:31:15;98637.44;;;-145.95;90.90
37648;BME280;23490;53.656;10.076;2022-10-16T07:33:42;98608.53;;;-145.95;89.87
37648;BME280;23490;53.656;10.076;2022-10-16T07:36:09;98596.16;;;-145.95;91.19
37648;BME280;23490;53.656;10.076;2022-10-16T07:38:35;98565.19;;;-145.95;90.11
37648;BME280;23490;53.656;10.076;2022-10-16T07:41:02;98542.47;;;-145.95;91.79
37648;BME280;23490;53.656;10.076;2022-10-16T07:43:28;98554.84;;;-145.95;90.39
37648;BME280;23490;53.656;10.076;2022-10-16T07:45:54;98534.22;;;-145.95;89.86
37648;BME280;23490;53.656;10.076;2022-10-16T07:48:20;98575.50;;;-145.95;90.55
37648;BME280;23490;53.656;10.076;2022-10-16T07:50:46;98530.06;;;-145.95;89.69
37648;BME280;23490;53.656;10.076;2022-10-16T07:53:11;98525.94;;;-145.95;89.21
37648;BME280;23490;53.656;10.076;2022-10-16T07:55:37;98513.56;;;-145.95;88.16
37648;BME280;23490;53.656;10.076;2022-10-16T07:58:03;98488.78;;;-145.95;88.51
37648;BME280;23490;53.656;10.076;2022-10-16T08:00:28;98484.66;;;-145.95;87.12
37648;BME280;23490;53.656;10.076;2022-10-16T08:02:53;98530.06;;;-145.95;88.14
37648;BME280;23490;53.656;10.076;2022-10-16T08:05:19;98542.47;;;-145.95;88.11
37648;BME280;23490;53.656;10.076;2022-10-16T08:07:49;98484.66;;;-145.95;88.48
37648;BME280;23490;53.656;10.076;2022-10-16T08:10:18;98484.66;;;-145.95;87.52
37648;BME280;23490;53.656;10.076;2022-10-16T08:12:44;98470.19;;;-145.95;88.09
37648;BME280;23490;53.656;10.076;2022-10-16T08:15:09;98470.19;;;-145.95;88.00
37648;BME280;23490;53.656;10.076;2022-10-16T08:17:35;98433.03;;;-145.95;87.55
37648;BME280;23490;53.656;10.076;2022-10-16T08:20:00;98443.38;;;-145.95;86.97
37648;BME280;23490;53.656;10.076;2022-10-16T08:22:26;98435.09;;;-145.95;87.03
37648;BME280;23490;53.656;10.076;2022-10-16T08:24:52;98362.84;;;-145.95;85.05
37648;BME280;23490;53.656;10.076;2022-10-16T08:27:17;98426.84;;;-145.95;84.47
37648;BME280;23490;53.656;10.076;2022-10-16T08:29:42;98360.78;;;-145.95;84.49
37648;BME280;23490;53.656;10.076;2022-10-16T08:32:07;98416.53;;;-145.95;84.68
37648;BME280;23490;53.656;10.076;2022-10-16T08:34:33;98373.16;;;-145.95;83.83
37648;BME280;23490;53.656;10.076;2022-10-16T08:36:58;98364.91;;;-145.95;83.67
37648;BME280;23490;53.656;10.076;2022-10-16T08:39:23;98327.75;;;-145.95;82.44
37648;BME280;23490;53.656;10.076;2022-10-16T08:50:36;98414.47;;;-145.95;83.81
37648;BME280;23490;53.656;10.076;2022-10-16T08:53:04;98379.38;;;-145.95;82.61
37648;BME280;23490;53.656;10.076;2022-10-16T08:55:41;98406.19;;;-145.95;84.15
37648;BME280;23490;53.656;10.076;2022-10-16T08:58:21;98375.22;;;-145.95;84.09
37648;BME280;23490;53.656;10.076;2022-10-16T09:00:51;98393.81;;;-145.95;84.93
37648;BME280;23490;53.656;10.076;2022-10-16T09:14:34;98286.47;;;-145.95;78.78
37648;BME280;23490;53.656;10.076;2022-10-16T09:19:46;98177.03;;;-145.95;78.85
37648;BME280;23490;53.656;10.076;2022-10-16T09:22:16;98146.06;;;-145.95;77.06
37648;BME280;23490;53.656;10.076;2022-10-16T09:24:42;98084.13;;;-145.95;75.61
37648;BME280;23490;53.656;10.076;2022-10-16T09:27:12;98075.88;;;-145.95;75.39
37648;BME280;23490;53.656;10.076;2022-10-16T09:29:37;98137.81;;;-145.95;74.49
37648;BME280;23490;53.656;10.076;2022-10-16T09:32:17;98144.00;;;-145.95;74.48
37648;BME280;23490;53.656;10.076;2022-10-16T09:34:53;98067.63;;;-145.95;75.53
37648;BME280;23490;53.656;10.076;2022-10-16T09:37:22;98131.63;;;-145.95;74.40
37648;BME280;23490;53.656;10.076;2022-10-16T09:39:51;98170.84;;;-145.95;74.66
37648;BME280;23490;53.656;10.076;2022-10-16T09:42:26;98038.72;;;-145.95;74.18
37648;BME280;23490;53.656;10.076;2022-10-16T09:44:53;98001.56;;;-145.95;70.39
37648;BME280;23490;53.656;10.076;2022-10-16T09:47:26;97844.66;;;-145.95;68.71
37648;BME280;23490;53.656;10.076;2022-10-16T09:49:53;97799.25;;;-145.95;68.66
37648;BME280;23490;53.656;10.076;2022-10-16T09:52:19;97795.13;;;-145.95;67.01
37648;BME280;23490;53.656;10.076;2022-10-16T09:57:20;97660.97;;;-145.95;63.31
37648;BME280;23490;53.656;10.076;2022-10-16T09:59:53;97687.78;;;-145.95;64.05
37648;BME280;23490;53.656;10.076;2022-10-16T10:02:23;97568.06;;;-145.95;60.49
37648;BME280;23490;53.656;10.076;2022-10-16T10:04:53;97720.81;;;-145.95;61.81
37648;BME280;23490;53.656;10.076;2022-10-16T10:07:27;97731.13;;;-145.95;61.96
37648;BME280;23490;53.656;10.076;2022-10-16T10:09:54;97555.69;;;-145.95;60.14
37648;BME280;23490;53.656;10.076;2022-10-16T10:12:28;97555.69;;;-145.95;59.95
37648;BME280;23490;53.656;10.076;2022-10-16T10:14:58;97504.09;;;-145.95;60.17
37648;BME280;23490;53.656;10.076;2022-10-16T10:17:28;97580.47;;;-145.95;59.31
37648;BME280;23490;53.656;10.076;2022-10-16T10:19:56;97619.69;;;-145.95;60.18
37648;BME280;23490;53.656;10.076;2022-10-16T10:22:23;97584.59;;;-145.95;61.14
37648;BME280;23490;53.656;10.076;2022-10-16T10:27:37;97493.75;;;-145.95;59.17
37648;BME280;23490;53.656;10.076;2022-10-16T10:35:47;97617.59;;;-145.95;59.70
37648;BME280;23490;53.656;10.076;2022-10-16T10:38:39;97566.00;;;-145.95;60.74
37648;BME280;23490;53.656;10.076;2022-10-16T10:46:40;97506.16;;;-145.95;58.79
37648;BME280;23490;53.656;10.076;2022-10-16T10:58:29;97696.06;;;-145.95;60.93
37648;BME280;23490;53.656;10.076;2022-10-16T11:01:12;97656.84;;;-145.95;59.68
37648;BME280;23490;53.656;10.076;2022-10-16T11:04:00;97617.59;;;-145.95;59.45
37648;BME280;23490;53.656;10.076;2022-10-16T11:06:33;97537.09;;;-145.95;57.89
37648;BME280;23490;53.656;10.076;2022-10-16T11:09:13;97411.19;;;-145.95;56.88
37648;BME280;23490;53.656;10.076;2022-10-16T11:11:44;97345.16;;;-145.95;55.02
37648;BME280;23490;53.656;10.076;2022-10-16T11:14:18;97320.38;;;-145.95;54.10
37648;BME280;23490;53.656;10.076;2022-10-16T11:17:01;97262.59;;;-145.95;53.34
37648;BME280;23490;53.656;10.076;2022-10-16T11:19:38;97270.84;;;-145.95;54.09
37648;BME280;23490;53.656;10.076;2022-10-16T11:22:18;97239.91;;;-145.95;51.81
37648;BME280;23490;53.656;10.076;2022-10-16T11:24:51;97316.25;;;-145.95;52.20
37648;BME280;23490;53.656;10.076;2022-10-16T11:27:30;97398.81;;;-145.95;51.92
37648;BME280;23490;53.656;10.076;2022-10-16T11:29:59;97398.81;;;-145.95;52.42
37648;BME280;23490;53.656;10.076;2022-10-16T11:32:39;97299.75;;;-145.95;53.82
37648;BME280;23490;53.656;10.076;2022-10-16T11:35:17;97464.88;;;-145.95;53.77
37648;BME280;23490;53.656;10.076;2022-10-16T11:37:46;97415.34;;;-145.95;54.15
37648;BME280;23490;53.656;10.076;2022-10-16T11:40:22;97497.88;;;-145.95;55.73
37648;BME280;23490;53.656;10.076;2022-10-16T11:42:54;97551.56;;;-145.95;56.26
37648;BME280;23490;53.656;10.076;2022-10-16T11:45:29;97613.47;;;-145.95;56.45
37648;BME280;23490;53.656;10.076;2022-10-16T11:48:08;97716.69;;;-145.95;56.76
37648;BME280;23490;53.656;10.076;2022-10-16T11:50:48;97497.88;;;-145.95;56.43
37648;BME280;23490;53.656;10.076;2022-10-16T11:56:14;97341.03;;;-145.95;53.49
37648;BME280;23490;53.656;10.076;2022-10-16T11:59:02;97341.03;;;-145.95;51.66
37648;BME280;23490;53.656;10.076;2022-10-16T12:01:42;97225.44;;;-145.95;50.91
37648;BME280;23490;53.656;10.076;2022-10-16T12:04:19;97262.59;;;-145.95;50.80
37648;BME280;23490;53.656;10.076;2022-10-16T12:06:52;97206.88;;;-145.95;50.43
37648;BME280;23490;53.656;10.076;2022-10-16T12:09:28;97330.72;;;-145.95;50.88
37648;BME280;23490;53.656;10.076;2022-10-16T12:11:55;97349.28;;;-145.95;49.78
37648;BME280;23490;53.656;10.076;2022-10-16T12:14:33;97357.53;;;-145.95;51.16
37648;BME280;23490;53.656;10.076;2022-10-16T12:17:03;97553.63;;;-145.95;51.54
37648;BME280;23490;53.656;10.076;2022-10-16T12:19:32;97407.06;;;-145.95;51.94
37648;BME280;23490;53.656;10.076;2022-10-16T12:21:59;97308.00;;;-145.95;50.42
37648;BME280;23490;53.656;10.076;2022-10-16T12:24:39;97299.75;;;-145.95;50.37
37648;BME280;23490;53.656;10.076;2022-10-16T12:27:27;97171.78;;;-145.95;47.07
37648;BME280;23490;53.656;10.076;2022-10-16T12:30:00;97155.28;;;-145.95;47.65
37648;BME280;23490;53.656;10.076;2022-10-16T12:32:36;97097.50;;;-145.95;47.85
37648;BME280;23490;53.656;10.076;2022-10-16T12:35:03;97097.50;;;-145.95;48.03
37648;BME280;23490;53.656;10.076;2022-10-16T12:37:34;97047.94;;;-145.95;47.41
37648;BME280;23490;53.656;10.076;2022-10-16T12:40:12;97351.34;;;-145.95;48.20
37648;BME280;23490;53.656;10.076;2022-10-16T12:42:38;97405.00;;;-145.95;50.78
37648;BME280;23490;53.656;10.076;2022-10-16T12:45:24;97535.03;;;-145.95;51.43
37648;BME280;23490;53.656;10.076;2022-10-16T12:47:52;97689.84;;;-145.95;52.09
37648;BME280;23490;53.656;10.076;2022-10-16T12:50:37;97731.13;;;-145.95;53.76
37648;BME280;23490;53.656;10.076;2022-10-16T12:53:21;97716.69;;;-145.95;52.84
37648;BME280;23490;53.656;10.076;2022-10-16T12:55:54;97786.88;;;-145.95;53.65
37648;BME280;23490;53.656;10.076;2022-10-16T12:58:49;97784.81;;;-145.95;55.26
37648;BME280;23490;53.656;10.076;2022-10-16T13:01:31;97791.00;;;-145.95;53.89
37648;BME280;23490;53.656;10.076;2022-10-16T13:06:46;97712.56;;;-145.95;53.32
37648;BME280;23490;53.656;10.076;2022-10-16T13:09:48;97630.00;;;-145.95;53.27
37648;BME280;23490;53.656;10.076;2022-10-16T13:12:38;97596.97;;;-145.95;52.09
37648;BME280;23490;53.656;10.076;2022-10-16T13:15:11;97539.19;;;-145.95;52.69
37648;BME280;23490;53.656;10.076;2022-10-16T13:17:45;97487.56;;;-145.95;51.15
37648;BME280;23490;53.656;10.076;2022-10-16T13:20:28;97543.31;;;-145.95;51.89
37648;BME280;23490;53.656;10.076;2022-10-16T13:25:40;97419.47;;;-145.95;51.64
37648;BME280;23490;53.656;10.076;2022-10-16T13:28:10;97345.16;;;-145.95;50.76
37648;BME280;23490;53.656;10.076;2022-10-16T13:33:14;97419.47;;;-145.95;51.44
37648;BME280;23490;53.656;10.076;2022-10-16T13:35:49;97440.09;;;-145.95;51.71
37648;BME280;23490;53.656;10.076;2022-10-16T13:38:22;97493.75;;;-145.95;52.67
37648;BME280;23490;53.656;10.076;2022-10-16T13:43:18;97409.13;;;-145.95;51.06
37648;BME280;23490;53.656;10.076;2022-10-16T13:45:56;97444.22;;;-145.95;51.35